sensor_id;sensor_type;location;lat;lon;timestamp;P1;durP1;ratioP1;P2;durP2;ratioP2
14698;SDS011;7439;50.804;4.602;2023-03-12T00:02:17;14.20;;;8.47;;
14698;SDS011;7439;50.804;4.602;2023-03-12T00:04:45;17.67;;;9.53;;
14698;SDS011;7439;50.804;4.602;2023-03-12T00:07:13;19.47;;;9.03;;
14698;SDS011;7439;50.804;4.602;2023-03-12T00:09:40;12.10;;;9.00;;
14698;SDS011;7439;50.804;4.602;2023-03-12T00:12:09;15.53;;;9.17;;
14698;SDS011;7439;50.804;4.602;2023-03-12T00:14:39;10.63;;;9.00;;
14698;SDS011;7439;50.804;4.602;2023-03-12T00:17:10;9.93;;;8.73;;
14698;SDS011;7439;50.804;4.602;2023-03-12T00:19:40;11.63;;;9.43;;
14698;SDS011;7439;50.804;4.602;2023-03-12T00:22:09;9.83;;;8.77;;
14698;SDS011;7439;50.804;4.602;2023-03-12T00:24:36;11.37;;;8.03;;
14698;SDS011;7439;50.804;4.602;2023-03-12T00:27:08;12.73;;;8.00;;
14698;SDS011;7439;50.804;4.602;2023-03-12T00:29:35;12.50;;;9.00;;
14698;SDS011;7439;50.804;4.602;2023-03-12T00:32:06;11.43;;;8.23;;
14698;SDS011;7439;50.804;4.602;2023-03-12T00:34:35;9.93;;;8.20;;
14698;SDS011;7439;50.804;4.602;2023-03-12T00:37:03;11.83;;;7.80;;
14698;SDS011;7439;50.804;4.602;2023-03-12T00:39:32;11.93;;;8.50;;
14698;SDS011;7439;50.804;4.602;2023-03-12T00:42:00;11.07;;;8.60;;
14698;SDS011;7439;50.804;4.602;2023-03-12T00:44:28;17.40;;;8.57;;
14698;SDS011;7439;50.804;4.602;2023-03-12T00:46:56;16.37;;;8.87;;
14698;SDS011;7439;50.804;4.602;2023-03-12T00:49:23;11.23;;;8.20;;
14698;SDS011;7439;50.804;4.602;2023-03-12T00:51:51;10.23;;;7.40;;
14698;SDS011;7439;50.804;4.602;2023-03-12T00:54:18;13.17;;;7.60;;
14698;SDS011;7439;50.804;4.602;2023-03-12T00:56:46;11.17;;;6.40;;
14698;SDS011;7439;50.804;4.602;2023-03-12T00:59:14;10.30;;;5.80;;
14698;SDS011;7439;50.804;4.602;2023-03-12T01:01:43;9.73;;;6.50;;
14698;SDS011;7439;50.804;4.602;2023-03-12T01:04:13;10.40;;;6.20;;
14698;SDS011;7439;50.804;4.602;2023-03-12T01:06:41;8.97;;;5.93;;
14698;SDS011;7439;50.804;4.602;2023-03-12T01:09:09;8.90;;;6.20;;
14698;SDS011;7439;50.804;4.602;2023-03-12T01:11:37;13.63;;;5.53;;
14698;SDS011;7439;50.804;4.602;2023-03-12T01:14:06;9.17;;;5.57;;
14698;SDS011;7439;50.804;4.602;2023-03-12T01:16:34;10.13;;;5.63;;
14698;SDS011;7439;50.804;4.602;2023-03-12T01:19:02;10.67;;;4.63;;
14698;SDS011;7439;50.804;4.602;2023-03-12T01:21:30;14.67;;;5.53;;
14698;SDS011;7439;50.804;4.602;2023-03-12T01:23:57;9.90;;;5.17;;
14698;SDS011;7439;50.804;4.602;2023-03-12T01:26:25;7.33;;;5.87;;
14698;SDS011;7439;50.804;4.602;2023-03-12T01:28:52;6.17;;;4.83;;
14698;SDS011;7439;50.804;4.602;2023-03-12T01:31:20;8.83;;;4.93;;
14698;SDS011;7439;50.804;4.602;2023-03-12T01:33:48;7.50;;;5.37;;
14698;SDS011;7439;50.804;4.602;2023-03-12T01:36:18;7.87;;;4.60;;
14698;SDS011;7439;50.804;4.602;2023-03-12T01:38:45;8.73;;;4.67;;
14698;SDS011;7439;50.804;4.602;2023-03-12T01:41:13;5.93;;;5.33;;
14698;SDS011;7439;50.804;4.602;2023-03-12T01:43:40;9.00;;;4.83;;
14698;SDS011;7439;50.804;4.602;2023-03-12T01:46:27;8.37;;;4.80;;
14698;SDS011;7439;50.804;4.602;2023-03-12T01:48:56;11.70;;;4.67;;
14698;SDS011;7439;50.804;4.602;2023-03-12T01:51:26;13.73;;;4.43;;
14698;SDS011;7439;50.804;4.602;2023-03-12T01:53:55;9.97;;;4.60;;
14698;SDS011;7439;50.804;4.602;2023-03-12T01:56:23;7.33;;;4.03;;
14698;SDS011;7439;50.804;4.602;2023-03-12T01:58:53;12.10;;;4.90;;
14698;SDS011;7439;50.804;4.602;2023-03-12T02:01:21;9.03;;;5.13;;
14698;SDS011;7439;50.804;4.602;2023-03-12T02:03:49;11.10;;;5.40;;
14698;SDS011;7439;50.804;4.602;2023-03-12T02:06:18;6.97;;;5.17;;
14698;SDS011;7439;50.804;4.602;2023-03-12T02:08:48;11.53;;;5.43;;
14698;SDS011;7439;50.804;4.602;2023-03-12T02:11:16;11.13;;;5.40;;
14698;SDS011;7439;50.804;4.602;2023-03-12T02:13:44;10.10;;;6.10;;
14698;SDS011;7439;50.804;4.602;2023-03-12T02:16:14;11.70;;;5.87;;
14698;SDS011;7439;50.804;4.602;2023-03-12T02:18:42;10.87;;;5.77;;
14698;SDS011;7439;50.804;4.602;2023-03-12T02:21:12;7.17;;;5.70;;
14698;SDS011;7439;50.804;4.602;2023-03-12T02:23:41;6.93;;;5.03;;
14698;SDS011;7439;50.804;4.602;2023-03-12T02:26:13;12.27;;;5.10;;
14698;SDS011;7439;50.804;4.602;2023-03-12T02:28:41;8.03;;;4.80;;
14698;SDS011;7439;50.804;4.602;2023-03-12T02:31:12;12.33;;;6.33;;
14698;SDS011;7439;50.804;4.602;2023-03-12T02:33:39;14.47;;;5.90;;
14698;SDS011;7439;50.804;4.602;2023-03-12T02:36:07;13.53;;;5.13;;
14698;SDS011;7439;50.804;4.602;2023-03-12T02:38:39;7.77;;;4.83;;
14698;SDS011;7439;50.804;4.602;2023-03-12T02:41:19;8.03;;;4.90;;
14698;SDS011;7439;50.804;4.602;2023-03-12T02:43:50;7.97;;;4.80;;
14698;SDS011;7439;50.804;4.602;2023-03-12T02:46:22;8.03;;;5.80;;
14698;SDS011;7439;50.804;4.602;2023-03-12T02:48:50;7.80;;;4.93;;
14698;SDS011;7439;50.804;4.602;2023-03-12T02:51:18;11.07;;;5.10;;
14698;SDS011;7439;50.804;4.602;2023-03-12T02:53:46;6.33;;;5.10;;
14698;SDS011;7439;50.804;4.602;2023-03-12T02:56:20;7.67;;;5.30;;
14698;SDS011;7439;50.804;4.602;2023-03-12T02:58:47;10.47;;;5.40;;
14698;SDS011;7439;50.804;4.602;2023-03-12T03:01:15;7.17;;;5.37;;
14698;SDS011;7439;50.804;4.602;2023-03-12T03:03:43;14.30;;;5.40;;
14698;SDS011;7439;50.804;4.602;2023-03-12T03:06:10;5.80;;;5.27;;
14698;SDS011;7439;50.804;4.602;2023-03-12T03:08:38;8.60;;;5.07;;
14698;SDS011;7439;50.804;4.602;2023-03-12T03:11:05;7.80;;;5.30;;
14698;SDS011;7439;50.804;4.602;2023-03-12T03:13:34;8.63;;;5.50;;
14698;SDS011;7439;50.804;4.602;2023-03-12T03:16:02;10.30;;;5.50;;
14698;SDS011;7439;50.804;4.602;2023-03-12T03:18:30;7.47;;;5.20;;
14698;SDS011;7439;50.804;4.602;2023-03-12T03:20:58;10.87;;;5.43;;
14698;SDS011;7439;50.804;4.602;2023-03-12T03:23:26;6.57;;;5.97;;
14698;SDS011;7439;50.804;4.602;2023-03-12T03:25:54;11.33;;;5.57;;
14698;SDS011;7439;50.804;4.602;2023-03-12T03:28:22;8.60;;;5.80;;
14698;SDS011;7439;50.804;4.602;2023-03-12T03:30:52;9.10;;;5.40;;
14698;SDS011;7439;50.804;4.602;2023-03-12T03:33:22;7.53;;;5.70;;
14698;SDS011;7439;50.804;4.602;2023-03-12T03:35:49;6.53;;;5.20;;
14698;SDS011;7439;50.804;4.602;2023-03-12T03:38:19;9.63;;;5.13;;
14698;SDS011;7439;50.804;4.602;2023-03-12T03:40:47;8.53;;;5.40;;
14698;SDS011;7439;50.804;4.602;2023-03-12T03:43:14;12.83;;;4.80;;
14698;SDS011;7439;50.804;4.602;2023-03-12T03:45:42;8.83;;;5.77;;
14698;SDS011;7439;50.804;4.602;2023-03-12T03:48:11;16.53;;;5.10;;
14698;SDS011;7439;50.804;4.602;2023-03-12T03:50:38;7.63;;;4.80;;
14698;SDS011;7439;50.804;4.602;2023-03-12T03:53:06;9.47;;;4.83;;
14698;SDS011;7439;50.804;4.602;2023-03-12T03:55:34;7.33;;;5.07;;
14698;SDS011;7439;50.804;4.602;2023-03-12T03:58:02;7.27;;;5.13;;
14698;SDS011;7439;50.804;4.602;2023-03-12T04:00:29;5.43;;;4.60;;
14698;SDS011;7439;50.804;4.602;2023-03-12T04:02:57;7.73;;;4.93;;
14698;SDS011;7439;50.804;4.602;2023-03-12T04:05:26;7.27;;;5.23;;
14698;SDS011;7439;50.804;4.602;2023-03-12T04:07:54;5.43;;;4.67;;
14698;SDS011;7439;50.804;4.602;2023-03-12T04:10:27;7.93;;;5.50;;
14698;SDS011;7439;50.804;4.602;2023-03-12T04:12:55;8.33;;;5.70;;
14698;SDS011;7439;50.804;4.602;2023-03-12T04:15:22;8.40;;;4.90;;
14698;SDS011;7439;50.804;4.602;2023-03-12T04:17:53;12.50;;;4.87;;
14698;SDS011;7439;50.804;4.602;2023-03-12T04:20:21;6.80;;;4.70;;
14698;SDS011;7439;50.804;4.602;2023-03-12T04:22:50;13.87;;;5.57;;
14698;SDS011;7439;50.804;4.602;2023-03-12T04:25:17;8.63;;;4.13;;
14698;SDS011;7439;50.804;4.602;2023-03-12T04:27:45;12.90;;;4.83;;
14698;SDS011;7439;50.804;4.602;2023-03-12T04:30:12;11.97;;;4.73;;
14698;SDS011;7439;50.804;4.602;2023-03-12T04:32:40;9.07;;;5.03;;
14698;SDS011;7439;50.804;4.602;2023-03-12T04:35:07;9.67;;;5.23;;
14698;SDS011;7439;50.804;4.602;2023-03-12T04:37:35;10.13;;;4.90;;
14698;SDS011;7439;50.804;4.602;2023-03-12T04:40:04;8.60;;;4.83;;
14698;SDS011;7439;50.804;4.602;2023-03-12T04:42:34;7.13;;;5.33;;
14698;SDS011;7439;50.804;4.602;2023-03-12T04:45:02;5.53;;;4.47;;
14698;SDS011;7439;50.804;4.602;2023-03-12T04:47:29;12.87;;;6.00;;
14698;SDS011;7439;50.804;4.602;2023-03-12T04:49:57;10.70;;;5.73;;
14698;SDS011;7439;50.804;4.602;2023-03-12T04:52:24;10.10;;;6.30;;
14698;SDS011;7439;50.804;4.602;2023-03-12T04:54:53;6.33;;;4.93;;
14698;SDS011;7439;50.804;4.602;2023-03-12T04:57:22;6.60;;;5.87;;
14698;SDS011;7439;50.804;4.602;2023-03-12T04:59:49;6.10;;;5.27;;
14698;SDS011;7439;50.804;4.602;2023-03-12T05:02:17;5.60;;;4.90;;
14698;SDS011;7439;50.804;4.602;2023-03-12T05:04:44;7.93;;;5.60;;
14698;SDS011;7439;50.804;4.602;2023-03-12T05:07:12;9.73;;;6.47;;
14698;SDS011;7439;50.804;4.602;2023-03-12T05:09:39;7.93;;;5.77;;
14698;SDS011;7439;50.804;4.602;2023-03-12T05:12:08;10.07;;;6.87;;
14698;SDS011;7439;50.804;4.602;2023-03-12T05:14:37;9.87;;;5.77;;
14698;SDS011;7439;50.804;4.602;2023-03-12T05:17:05;9.83;;;6.97;;
14698;SDS011;7439;50.804;4.602;2023-03-12T05:19:32;11.07;;;7.23;;
14698;SDS011;7439;50.804;4.602;2023-03-12T05:21:59;9.07;;;7.20;;
14698;SDS011;7439;50.804;4.602;2023-03-12T05:24:27;10.93;;;7.13;;
14698;SDS011;7439;50.804;4.602;2023-03-12T05:26:57;9.17;;;7.07;;
14698;SDS011;7439;50.804;4.602;2023-03-12T05:29:25;10.50;;;7.20;;
14698;SDS011;7439;50.804;4.602;2023-03-12T05:31:55;10.43;;;7.93;;
14698;SDS011;7439;50.804;4.602;2023-03-12T05:34:22;10.10;;;7.47;;
14698;SDS011;7439;50.804;4.602;2023-03-12T05:36:50;9.20;;;7.60;;
14698;SDS011;7439;50.804;4.602;2023-03-12T05:39:17;10.30;;;8.03;;
14698;SDS011;7439;50.804;4.602;2023-03-12T05:41:45;12.17;;;8.50;;
14698;SDS011;7439;50.804;4.602;2023-03-12T05:44:12;12.43;;;8.43;;
14698;SDS011;7439;50.804;4.602;2023-03-12T05:46:40;12.27;;;8.17;;
14698;SDS011;7439;50.804;4.602;2023-03-12T05:49:09;12.77;;;9.03;;
14698;SDS011;7439;50.804;4.602;2023-03-12T05:51:36;16.07;;;9.47;;
14698;SDS011;7439;50.804;4.602;2023-03-12T05:54:04;15.00;;;9.90;;
14698;SDS011;7439;50.804;4.602;2023-03-12T05:56:31;15.50;;;9.67;;
14698;SDS011;7439;50.804;4.602;2023-03-12T05:58:59;10.43;;;9.27;;
14698;SDS011;7439;50.804;4.602;2023-03-12T06:01:27;13.17;;;11.47;;
14698;SDS011;7439;50.804;4.602;2023-03-12T06:03:55;11.53;;;10.13;;
14698;SDS011;7439;50.804;4.602;2023-03-12T06:06:24;14.83;;;11.83;;
14698;SDS011;7439;50.804;4.602;2023-03-12T06:08:51;12.73;;;10.23;;
14698;SDS011;7439;50.804;4.602;2023-03-12T06:11:19;14.37;;;11.83;;
14698;SDS011;7439;50.804;4.602;2023-03-12T06:13:46;16.47;;;11.83;;
14698;SDS011;7439;50.804;4.602;2023-03-12T06:16:15;16.07;;;11.77;;
14698;SDS011;7439;50.804;4.602;2023-03-12T06:18:43;17.17;;;11.50;;
14698;SDS011;7439;50.804;4.602;2023-03-12T06:21:11;16.53;;;11.27;;
14698;SDS011;7439;50.804;4.602;2023-03-12T06:23:41;17.90;;;12.53;;
14698;SDS011;7439;50.804;4.602;2023-03-12T06:26:09;18.60;;;12.43;;
14698;SDS011;7439;50.804;4.602;2023-03-12T06:28:37;17.67;;;12.20;;
14698;SDS011;7439;50.804;4.602;2023-03-12T06:31:05;12.93;;;11.73;;
14698;SDS011;7439;50.804;4.602;2023-03-12T06:33:33;15.43;;;13.07;;
14698;SDS011;7439;50.804;4.602;2023-03-12T06:36:01;19.70;;;13.70;;
14698;SDS011;7439;50.804;4.602;2023-03-12T06:38:33;18.90;;;14.37;;
14698;SDS011;7439;50.804;4.602;2023-03-12T06:41:03;15.67;;;14.00;;
14698;SDS011;7439;50.804;4.602;2023-03-12T06:43:31;14.77;;;13.20;;
14698;SDS011;7439;50.804;4.602;2023-03-12T06:46:00;17.67;;;13.80;;
14698;SDS011;7439;50.804;4.602;2023-03-12T06:48:28;17.97;;;15.13;;
14698;SDS011;7439;50.804;4.602;2023-03-12T06:50:57;20.67;;;15.20;;
14698;SDS011;7439;50.804;4.602;2023-03-12T06:53:25;16.90;;;14.03;;
14698;SDS011;7439;50.804;4.602;2023-03-12T06:55:52;16.63;;;14.93;;
14698;SDS011;7439;50.804;4.602;2023-03-12T06:58:21;18.33;;;15.47;;
14698;SDS011;7439;50.804;4.602;2023-03-12T07:00:49;16.67;;;15.07;;
14698;SDS011;7439;50.804;4.602;2023-03-12T07:03:16;17.60;;;15.30;;
14698;SDS011;7439;50.804;4.602;2023-03-12T07:05:44;20.80;;;16.20;;
14698;SDS011;7439;50.804;4.602;2023-03-12T07:08:11;17.37;;;15.47;;
14698;SDS011;7439;50.804;4.602;2023-03-12T07:10:39;17.67;;;15.77;;
14698;SDS011;7439;50.804;4.602;2023-03-12T07:13:07;21.00;;;17.60;;
14698;SDS011;7439;50.804;4.602;2023-03-12T07:15:36;18.67;;;16.80;;
14698;SDS011;7439;50.804;4.602;2023-03-12T07:18:03;25.77;;;17.60;;
14698;SDS011;7439;50.804;4.602;2023-03-12T07:20:31;27.50;;;16.90;;
14698;SDS011;7439;50.804;4.602;2023-03-12T07:22:59;22.90;;;15.93;;
14698;SDS011;7439;50.804;4.602;2023-03-12T07:25:26;25.73;;;20.17;;
14698;SDS011;7439;50.804;4.602;2023-03-12T07:27:53;26.37;;;19.27;;
14698;SDS011;7439;50.804;4.602;2023-03-12T07:30:21;25.40;;;19.77;;
14698;SDS011;7439;50.804;4.602;2023-03-12T07:32:50;22.07;;;18.40;;
14698;SDS011;7439;50.804;4.602;2023-03-12T07:35:18;26.60;;;20.30;;
14698;SDS011;7439;50.804;4.602;2023-03-12T07:37:45;26.50;;;21.13;;
14698;SDS011;7439;50.804;4.602;2023-03-12T07:40:13;24.50;;;18.60;;
14698;SDS011;7439;50.804;4.602;2023-03-12T07:42:40;32.17;;;21.70;;
14698;SDS011;7439;50.804;4.602;2023-03-12T07:45:08;28.43;;;21.17;;
14698;SDS011;7439;50.804;4.602;2023-03-12T07:47:35;28.47;;;19.90;;
14698;SDS011;7439;50.804;4.602;2023-03-12T07:50:07;38.60;;;22.20;;
14698;SDS011;7439;50.804;4.602;2023-03-12T07:52:35;38.47;;;25.17;;
14698;SDS011;7439;50.804;4.602;2023-03-12T07:55:02;31.77;;;22.67;;
14698;SDS011;7439;50.804;4.602;2023-03-12T07:57:30;30.23;;;20.27;;
14698;SDS011;7439;50.804;4.602;2023-03-12T07:59:57;35.20;;;24.80;;
14698;SDS011;7439;50.804;4.602;2023-03-12T08:02:24;37.00;;;21.53;;
14698;SDS011;7439;50.804;4.602;2023-03-12T08:04:52;30.43;;;21.03;;
14698;SDS011;7439;50.804;4.602;2023-03-12T08:07:21;36.63;;;20.97;;
14698;SDS011;7439;50.804;4.602;2023-03-12T08:09:48;37.17;;;25.07;;
14698;SDS011;7439;50.804;4.602;2023-03-12T08:12:16;31.80;;;21.60;;
14698;SDS011;7439;50.804;4.602;2023-03-12T08:14:43;49.90;;;25.33;;
14698;SDS011;7439;50.804;4.602;2023-03-12T08:17:10;54.00;;;27.47;;
14698;SDS011;7439;50.804;4.602;2023-03-12T08:19:38;55.40;;;28.33;;
14698;SDS011;7439;50.804;4.602;2023-03-12T08:22:06;52.20;;;26.60;;
14698;SDS011;7439;50.804;4.602;2023-03-12T08:24:35;60.23;;;30.90;;
14698;SDS011;7439;50.804;4.602;2023-03-12T08:27:02;48.63;;;28.67;;
14698;SDS011;7439;50.804;4.602;2023-03-12T08:29:30;63.63;;;34.17;;
14698;SDS011;7439;50.804;4.602;2023-03-12T08:31:58;69.00;;;34.30;;
14698;SDS011;7439;50.804;4.602;2023-03-12T08:34:25;68.37;;;34.43;;
14698;SDS011;7439;50.804;4.602;2023-03-12T08:36:53;79.67;;;35.57;;
14698;SDS011;7439;50.804;4.602;2023-03-12T08:39:21;72.90;;;35.97;;
14698;SDS011;7439;50.804;4.602;2023-03-12T08:41:50;73.97;;;36.43;;
14698;SDS011;7439;50.804;4.602;2023-03-12T08:44:19;64.97;;;37.87;;
14698;SDS011;7439;50.804;4.602;2023-03-12T08:46:46;73.93;;;38.90;;
14698;SDS011;7439;50.804;4.602;2023-03-12T08:49:14;68.50;;;40.70;;
14698;SDS011;7439;50.804;4.602;2023-03-12T08:51:41;70.13;;;41.53;;
14698;SDS011;7439;50.804;4.602;2023-03-12T08:54:08;71.40;;;39.00;;
14698;SDS011;7439;50.804;4.602;2023-03-12T08:56:39;69.30;;;42.10;;
14698;SDS011;7439;50.804;4.602;2023-03-12T08:59:09;75.63;;;41.70;;
14698;SDS011;7439;50.804;4.602;2023-03-12T09:01:39;78.37;;;43.23;;
14698;SDS011;7439;50.804;4.602;2023-03-12T09:04:07;71.03;;;44.03;;
14698;SDS011;7439;50.804;4.602;2023-03-12T09:06:34;72.83;;;46.70;;
14698;SDS011;7439;50.804;4.602;2023-03-12T09:09:02;76.17;;;46.07;;
14698;SDS011;7439;50.804;4.602;2023-03-12T09:11:30;70.10;;;50.73;;
14698;SDS011;7439;50.804;4.602;2023-03-12T09:13:58;66.10;;;49.90;;
14698;SDS011;7439;50.804;4.602;2023-03-12T09:16:27;66.27;;;54.43;;
14698;SDS011;7439;50.804;4.602;2023-03-12T09:18:54;67.13;;;54.90;;
14698;SDS011;7439;50.804;4.602;2023-03-12T09:21:22;65.43;;;58.53;;
14698;SDS011;7439;50.804;4.602;2023-03-12T09:23:49;66.70;;;60.30;;
14698;SDS011;7439;50.804;4.602;2023-03-12T09:26:17;67.80;;;60.50;;
14698;SDS011;7439;50.804;4.602;2023-03-12T09:28:44;68.80;;;61.53;;
14698;SDS011;7439;50.804;4.602;2023-03-12T09:31:12;76.80;;;68.73;;
14698;SDS011;7439;50.804;4.602;2023-03-12T09:33:41;73.57;;;66.47;;
14698;SDS011;7439;50.804;4.602;2023-03-12T09:36:12;78.83;;;72.20;;
14698;SDS011;7439;50.804;4.602;2023-03-12T09:38:39;77.77;;;70.77;;
14698;SDS011;7439;50.804;4.602;2023-03-12T09:41:16;87.73;;;79.97;;
14698;SDS011;7439;50.804;4.602;2023-03-12T09:43:44;92.50;;;84.70;;
14698;SDS011;7439;50.804;4.602;2023-03-12T09:46:14;91.23;;;83.90;;
14698;SDS011;7439;50.804;4.602;2023-03-12T09:48:48;101.30;;;93.60;;
14698;SDS011;7439;50.804;4.602;2023-03-12T09:51:17;116.70;;;108.60;;
14698;SDS011;7439;50.804;4.602;2023-03-12T09:53:46;120.13;;;112.57;;
14698;SDS011;7439;50.804;4.602;2023-03-12T09:56:15;120.00;;;112.07;;
14698;SDS011;7439;50.804;4.602;2023-03-12T09:58:44;140.13;;;130.77;;
14698;SDS011;7439;50.804;4.602;2023-03-12T10:01:25;131.77;;;123.23;;
14698;SDS011;7439;50.804;4.602;2023-03-12T10:03:58;121.90;;;114.67;;
14698;SDS011;7439;50.804;4.602;2023-03-12T10:06:28;94.53;;;87.30;;
14698;SDS011;7439;50.804;4.602;2023-03-12T10:09:00;57.47;;;52.17;;
14698;SDS011;7439;50.804;4.602;2023-03-12T10:11:31;57.07;;;46.67;;
14698;SDS011;7439;50.804;4.602;2023-03-12T10:14:14;51.30;;;41.60;;
14698;SDS011;7439;50.804;4.602;2023-03-12T10:16:48;49.13;;;38.20;;
14698;SDS011;7439;50.804;4.602;2023-03-12T10:19:22;43.33;;;34.03;;
14698;SDS011;7439;50.804;4.602;2023-03-12T10:21:55;50.60;;;32.77;;
14698;SDS011;7439;50.804;4.602;2023-03-12T10:24:29;49.43;;;33.93;;
14698;SDS011;7439;50.804;4.602;2023-03-12T10:27:00;54.40;;;29.63;;
14698;SDS011;7439;50.804;4.602;2023-03-12T10:29:29;49.80;;;30.30;;
14698;SDS011;7439;50.804;4.602;2023-03-12T10:31:58;48.03;;;28.50;;
14698;SDS011;7439;50.804;4.602;2023-03-12T10:34:29;42.67;;;28.60;;
14698;SDS011;7439;50.804;4.602;2023-03-12T10:37:02;51.20;;;29.03;;
14698;SDS011;7439;50.804;4.602;2023-03-12T10:39:31;42.87;;;27.90;;
14698;SDS011;7439;50.804;4.602;2023-03-12T10:41:58;46.43;;;30.27;;
14698;SDS011;7439;50.804;4.602;2023-03-12T10:44:26;38.63;;;23.23;;
14698;SDS011;7439;50.804;4.602;2023-03-12T10:47:05;47.63;;;23.10;;
14698;SDS011;7439;50.804;4.602;2023-03-12T10:49:35;38.90;;;20.30;;
14698;SDS011;7439;50.804;4.602;2023-03-12T10:52:04;40.70;;;18.63;;
14698;SDS011;7439;50.804;4.602;2023-03-12T10:54:33;38.60;;;18.60;;
14698;SDS011;7439;50.804;4.602;2023-03-12T10:57:01;32.43;;;17.53;;
14698;SDS011;7439;50.804;4.602;2023-03-12T10:59:29;41.90;;;19.20;;
14698;SDS011;7439;50.804;4.602;2023-03-12T11:01:57;39.70;;;18.50;;
14698;SDS011;7439;50.804;4.602;2023-03-12T11:04:25;40.30;;;17.97;;
14698;SDS011;7439;50.804;4.602;2023-03-12T11:09:51;32.97;;;17.60;;
14698;SDS011;7439;50.804;4.602;2023-03-12T11:12:29;39.07;;;17.27;;
14698;SDS011;7439;50.804;4.602;2023-03-12T11:14:57;39.67;;;15.47;;
14698;SDS011;7439;50.804;4.602;2023-03-12T11:17:25;33.60;;;15.20;;
14698;SDS011;7439;50.804;4.602;2023-03-12T11:19:53;34.43;;;15.33;;
14698;SDS011;7439;50.804;4.602;2023-03-12T11:22:28;29.40;;;14.70;;
14698;SDS011;7439;50.804;4.602;2023-03-12T11:24:57;38.97;;;16.00;;
14698;SDS011;7439;50.804;4.602;2023-03-12T11:30:10;33.00;;;14.70;;
14698;SDS011;7439;50.804;4.602;2023-03-12T11:32:38;32.50;;;14.63;;
14698;SDS011;7439;50.804;4.602;2023-03-12T11:35:08;38.30;;;14.87;;
14698;SDS011;7439;50.804;4.602;2023-03-12T11:37:38;39.90;;;15.67;;
14698;SDS011;7439;50.804;4.602;2023-03-12T11:40:20;40.73;;;15.43;;
14698;SDS011;7439;50.804;4.602;2023-03-12T11:43:03;34.27;;;14.93;;
14698;SDS011;7439;50.804;4.602;2023-03-12T11:45:37;34.13;;;14.83;;
14698;SDS011;7439;50.804;4.602;2023-03-12T11:48:09;33.57;;;14.50;;
14698;SDS011;7439;50.804;4.602;2023-03-12T11:50:42;36.97;;;14.93;;
14698;SDS011;7439;50.804;4.602;2023-03-12T11:53:22;35.37;;;15.20;;
14698;SDS011;7439;50.804;4.602;2023-03-12T11:55:57;39.17;;;17.00;;
14698;SDS011;7439;50.804;4.602;2023-03-12T12:01:11;37.27;;;17.20;;
14698;SDS011;7439;50.804;4.602;2023-03-12T12:06:36;34.17;;;16.40;;
14698;SDS011;7439;50.804;4.602;2023-03-12T12:09:07;43.40;;;19.83;;
14698;SDS011;7439;50.804;4.602;2023-03-12T12:11:41;43.87;;;17.17;;
14698;SDS011;7439;50.804;4.602;2023-03-12T12:14:14;31.50;;;16.00;;
14698;SDS011;7439;50.804;4.602;2023-03-12T12:16:45;29.60;;;14.57;;
14698;SDS011;7439;50.804;4.602;2023-03-12T12:19:19;33.77;;;13.70;;
14698;SDS011;7439;50.804;4.602;2023-03-12T12:21:54;40.67;;;14.47;;
14698;SDS011;7439;50.804;4.602;2023-03-12T12:24:28;35.40;;;13.73;;
14698;SDS011;7439;50.804;4.602;2023-03-12T12:27:02;33.53;;;15.23;;
14698;SDS011;7439;50.804;4.602;2023-03-12T12:29:35;35.77;;;16.13;;
14698;SDS011;7439;50.804;4.602;2023-03-12T12:32:08;32.97;;;16.20;;
14698;SDS011;7439;50.804;4.602;2023-03-12T12:34:50;37.43;;;16.60;;
14698;SDS011;7439;50.804;4.602;2023-03-12T12:37:24;35.43;;;17.73;;
14698;SDS011;7439;50.804;4.602;2023-03-12T12:39:55;41.13;;;18.40;;
14698;SDS011;7439;50.804;4.602;2023-03-12T12:42:26;41.07;;;18.73;;
14698;SDS011;7439;50.804;4.602;2023-03-12T12:44:56;36.33;;;17.10;;
14698;SDS011;7439;50.804;4.602;2023-03-12T12:47:27;41.57;;;18.53;;
14698;SDS011;7439;50.804;4.602;2023-03-12T12:49:56;32.00;;;16.37;;
14698;SDS011;7439;50.804;4.602;2023-03-12T12:52:24;31.50;;;16.73;;
14698;SDS011;7439;50.804;4.602;2023-03-12T12:54:56;31.97;;;17.20;;
14698;SDS011;7439;50.804;4.602;2023-03-12T12:57:32;30.97;;;16.97;;
14698;SDS011;7439;50.804;4.602;2023-03-12T13:00:08;36.43;;;18.03;;
14698;SDS011;7439;50.804;4.602;2023-03-12T13:02:41;37.90;;;18.27;;
14698;SDS011;7439;50.804;4.602;2023-03-12T13:05:17;43.93;;;18.60;;
14698;SDS011;7439;50.804;4.602;2023-03-12T13:07:45;39.57;;;19.70;;
14698;SDS011;7439;50.804;4.602;2023-03-12T13:13:02;39.27;;;19.73;;
14698;SDS011;7439;50.804;4.602;2023-03-12T13:15:34;38.60;;;17.63;;
14698;SDS011;7439;50.804;4.602;2023-03-12T13:18:06;30.37;;;18.73;;
14698;SDS011;7439;50.804;4.602;2023-03-12T13:20:36;33.13;;;17.47;;
14698;SDS011;7439;50.804;4.602;2023-03-12T13:25:57;32.63;;;16.30;;
14698;SDS011;7439;50.804;4.602;2023-03-12T13:28:31;31.40;;;17.20;;
14698;SDS011;7439;50.804;4.602;2023-03-12T13:31:00;30.80;;;19.07;;
14698;SDS011;7439;50.804;4.602;2023-03-12T13:36:18;36.43;;;19.07;;
14698;SDS011;7439;50.804;4.602;2023-03-12T13:38:51;33.87;;;17.50;;
14698;SDS011;7439;50.804;4.602;2023-03-12T13:41:29;27.83;;;14.57;;
14698;SDS011;7439;50.804;4.602;2023-03-12T13:43:58;29.30;;;15.00;;
14698;SDS011;7439;50.804;4.602;2023-03-12T13:46:32;39.70;;;15.87;;
14698;SDS011;7439;50.804;4.602;2023-03-12T13:49:02;30.83;;;14.33;;
14698;SDS011;7439;50.804;4.602;2023-03-12T13:51:33;34.13;;;14.83;;
14698;SDS011;7439;50.804;4.602;2023-03-12T13:54:11;27.83;;;13.80;;
14698;SDS011;7439;50.804;4.602;2023-03-12T13:56:43;33.47;;;16.17;;
14698;SDS011;7439;50.804;4.602;2023-03-12T13:59:14;29.37;;;14.17;;
14698;SDS011;7439;50.804;4.602;2023-03-12T14:01:44;30.47;;;14.33;;
14698;SDS011;7439;50.804;4.602;2023-03-12T14:04:13;34.77;;;16.10;;
14698;SDS011;7439;50.804;4.602;2023-03-12T14:06:48;27.50;;;15.13;;
14698;SDS011;7439;50.804;4.602;2023-03-12T14:09:19;29.30;;;14.87;;
14698;SDS011;7439;50.804;4.602;2023-03-12T14:11:52;31.17;;;15.23;;
14698;SDS011;7439;50.804;4.602;2023-03-12T14:14:26;31.00;;;17.57;;
14698;SDS011;7439;50.804;4.602;2023-03-12T14:16:57;32.57;;;16.23;;
14698;SDS011;7439;50.804;4.602;2023-03-12T14:19:27;29.10;;;16.30;;
14698;SDS011;7439;50.804;4.602;2023-03-12T14:21:55;29.63;;;14.23;;
14698;SDS011;7439;50.804;4.602;2023-03-12T14:24:24;30.53;;;14.23;;
14698;SDS011;7439;50.804;4.602;2023-03-12T14:26:53;26.70;;;13.80;;
14698;SDS011;7439;50.804;4.602;2023-03-12T14:29:22;28.63;;;13.77;;
14698;SDS011;7439;50.804;4.602;2023-03-12T14:31:53;27.67;;;13.43;;
14698;SDS011;7439;50.804;4.602;2023-03-12T14:34:22;29.77;;;13.93;;
14698;SDS011;7439;50.804;4.602;2023-03-12T14:36:54;32.50;;;13.70;;
14698;SDS011;7439;50.804;4.602;2023-03-12T14:39:24;37.27;;;15.43;;
14698;SDS011;7439;50.804;4.602;2023-03-12T14:41:53;30.77;;;13.70;;
14698;SDS011;7439;50.804;4.602;2023-03-12T14:44:22;34.73;;;13.77;;
14698;SDS011;7439;50.804;4.602;2023-03-12T14:46:58;29.97;;;12.83;;
14698;SDS011;7439;50.804;4.602;2023-03-12T14:49:26;26.40;;;11.47;;
14698;SDS011;7439;50.804;4.602;2023-03-12T14:51:54;26.87;;;13.17;;
14698;SDS011;7439;50.804;4.602;2023-03-12T14:54:22;20.07;;;11.40;;
14698;SDS011;7439;50.804;4.602;2023-03-12T14:56:50;23.20;;;12.33;;
14698;SDS011;7439;50.804;4.602;2023-03-12T14:59:25;26.83;;;12.30;;
14698;SDS011;7439;50.804;4.602;2023-03-12T15:01:55;27.13;;;12.77;;
14698;SDS011;7439;50.804;4.602;2023-03-12T15:04:26;22.23;;;13.57;;
14698;SDS011;7439;50.804;4.602;2023-03-12T15:06:54;24.27;;;12.47;;
14698;SDS011;7439;50.804;4.602;2023-03-12T15:09:24;27.37;;;13.63;;
14698;SDS011;7439;50.804;4.602;2023-03-12T15:11:52;19.53;;;11.77;;
14698;SDS011;7439;50.804;4.602;2023-03-12T15:14:20;25.40;;;11.77;;
14698;SDS011;7439;50.804;4.602;2023-03-12T15:16:49;28.63;;;11.67;;